createdAt,value
2018-05-25T00:00:26.340Z,21.18
2018-05-25T00:02:55.626Z,21.12
2018-05-25T00:05:25.127Z,21.06
2018-05-25T00:07:54.235Z,21.02
2018-05-25T00:10:22.651Z,21.02
2018-05-25T00:12:51.801Z,21.01
2018-05-25T00:15:20.950Z,20.95
2018-05-25T00:17:50.750Z,20.93
2018-05-25T00:20:20.281Z,20.86
2018-05-25T00:22:49.422Z,20.78
2018-05-25T00:25:17.785Z,20.79
2018-05-25T00:27:47.001Z,20.74
2018-05-25T00:30:15.492Z,20.69
2018-05-25T00:32:44.782Z,20.67
2018-05-25T00:35:15.114Z,20.67
2018-05-25T00:37:43.475Z,20.59
2018-05-25T00:40:12.544Z,20.62
2018-05-25T00:42:41.782Z,20.60
2018-05-25T00:45:11.091Z,20.55
2018-05-25T00:47:41.223Z,20.49
2018-05-25T00:50:09.801Z,20.42
2018-05-25T00:52:39.724Z,20.39
2018-05-25T00:55:25.888Z,20.29
2018-05-25T00:57:54.259Z,20.25
2018-05-25T01:00:23.367Z,20.21
2018-05-25T01:02:52.580Z,20.16
2018-05-25T01:05:21.895Z,20.18
2018-05-25T01:07:51.052Z,20.25
2018-05-25T01:10:20.429Z,20.25
2018-05-25T01:12:49.617Z,20.21
2018-05-25T01:15:21.374Z,20.15
2018-05-25T01:17:49.939Z,20.19
2018-05-25T01:20:18.302Z,20.11
2018-05-25T01:22:47.981Z,20.08
2018-05-25T01:25:17.257Z,20.08
2018-05-25T01:27:48.274Z,20.07
2018-05-25T01:30:16.705Z,20.11
2018-05-25T01:32:45.812Z,20.07
2018-05-25T01:35:14.230Z,20.06
2018-05-25T01:37:43.482Z,20.02
2018-05-25T01:40:14.692Z,19.99
2018-05-25T01:42:43.591Z,20.00
2018-05-25T01:45:13.812Z,19.97
2018-05-25T01:47:43.482Z,19.92
2018-05-25T01:50:11.807Z,19.94
2018-05-25T01:52:41.014Z,19.94
2018-05-25T01:55:11.953Z,19.90
2018-05-25T01:57:41.956Z,19.85
2018-05-25T02:00:10.357Z,19.79
2018-05-25T02:02:39.436Z,19.79
2018-05-25T02:05:08.529Z,19.72
2018-05-25T02:07:38.627Z,19.71
2018-05-25T02:10:06.974Z,19.74
2018-05-25T02:12:37.654Z,19.69
2018-05-25T02:15:06.089Z,19.68
2018-05-25T02:17:35.038Z,19.65
2018-05-25T02:20:05.527Z,19.63
2018-05-25T02:22:34.998Z,19.59
2018-05-25T02:25:04.801Z,19.58
2018-05-25T02:27:34.024Z,19.50
2018-05-25T02:30:02.429Z,19.44
2018-05-25T02:32:30.780Z,19.46
2018-05-25T02:35:00.048Z,19.43
2018-05-25T02:37:29.381Z,19.44
2018-05-25T02:39:58.192Z,19.43
2018-05-25T02:42:27.217Z,19.40
2018-05-25T02:44:56.401Z,19.36
2018-05-25T02:47:24.740Z,19.30
2018-05-25T02:49:55.444Z,19.25
2018-05-25T02:52:24.564Z,19.19
2018-05-25T02:54:53.528Z,19.20
2018-05-25T02:57:22.785Z,19.12
2018-05-25T02:59:51.803Z,19.10
2018-05-25T03:02:21.932Z,19.09
2018-05-25T03:04:50.949Z,19.06
2018-05-25T03:07:19.360Z,19.06
2018-05-25T03:09:47.717Z,19.02
2018-05-25T03:12:17.025Z,19.00
2018-05-25T03:14:46.295Z,19.02
2018-05-25T03:17:14.653Z,18.99
2018-05-25T03:19:43.801Z,18.88
2018-05-25T03:22:12.144Z,18.91
2018-05-25T03:24:41.310Z,18.94
2018-05-25T03:27:09.650Z,18.97
2018-05-25T03:29:38.605Z,18.93
2018-05-25T03:32:08.422Z,18.93
2018-05-25T03:34:37.548Z,18.93
2018-05-25T03:37:05.932Z,18.90
2018-05-25T03:39:34.271Z,18.89
2018-05-25T03:42:05.110Z,18.81
2018-05-25T03:44:34.251Z,18.81
2018-05-25T03:47:02.931Z,18.87
2018-05-25T03:49:32.039Z,18.91
2018-05-25T03:52:00.949Z,18.96
2018-05-25T03:54:29.320Z,19.00
2018-05-25T03:56:57.770Z,18.97
2018-05-25T03:59:44.020Z,18.95
2018-05-25T04:02:13.212Z,18.88
2018-05-25T04:04:43.410Z,18.88
2018-05-25T04:07:11.772Z,18.88
2018-05-25T04:09:41.118Z,18.82
2018-05-25T04:12:10.282Z,18.79
2018-05-25T04:14:39.437Z,18.90
2018-05-25T04:17:09.582Z,18.90
2018-05-25T04:19:37.952Z,18.84
2018-05-25T04:22:06.317Z,18.78
2018-05-25T04:24:37.159Z,18.75
2018-05-25T04:27:05.530Z,18.74
2018-05-25T04:29:34.654Z,18.74
2018-05-25T04:32:03.081Z,18.91
2018-05-25T04:34:31.447Z,19.08
2018-05-25T04:36:59.819Z,19.03
2018-05-25T04:39:28.981Z,19.03
2018-05-25T04:41:57.328Z,19.07
2018-05-25T04:44:26.482Z,19.16
2018-05-25T04:46:54.845Z,19.22
2018-05-25T04:49:23.935Z,19.18
2018-05-25T04:51:53.097Z,19.14
2018-05-25T04:54:22.640Z,19.13
2018-05-25T04:56:52.269Z,19.09
2018-05-25T04:59:20.953Z,19.03
2018-05-25T05:01:49.539Z,19.03
2018-05-25T05:04:18.742Z,18.97
2018-05-25T05:06:48.209Z,19.03
2018-05-25T05:09:16.928Z,19.02
2018-05-25T05:11:46.243Z,19.02
2018-05-25T05:14:15.311Z,19.00
2018-05-25T05:16:44.305Z,19.00
2018-05-25T05:19:12.923Z,18.99
2018-05-25T05:21:41.497Z,19.09
2018-05-25T05:24:09.840Z,19.09
2018-05-25T05:26:38.924Z,19.12
2018-05-25T05:29:07.252Z,19.14
2018-05-25T05:31:35.730Z,19.21
2018-05-25T05:34:05.572Z,19.24
2018-05-25T05:36:35.117Z,19.25
2018-05-25T05:39:04.212Z,19.24
2018-05-25T05:41:32.613Z,19.24
2018-05-25T05:44:01.449Z,19.23
2018-05-25T05:46:30.599Z,19.22
2018-05-25T05:48:58.981Z,19.25
2018-05-25T05:51:28.293Z,19.33
2018-05-25T05:53:57.768Z,19.33
2018-05-25T05:56:26.138Z,19.34
2018-05-25T05:58:55.475Z,19.35
2018-05-25T06:01:24.689Z,19.39
2018-05-25T06:03:55.432Z,19.43
2018-05-25T06:06:25.761Z,19.46
2018-05-25T06:08:54.942Z,19.53
2018-05-25T06:11:24.246Z,19.59
2018-05-25T06:13:54.054Z,19.61
2018-05-25T06:16:23.318Z,19.65
2018-05-25T06:18:54.026Z,19.72
2018-05-25T06:21:22.364Z,19.73
2018-05-25T06:23:50.947Z,19.74
2018-05-25T06:26:20.162Z,19.79
2018-05-25T06:28:49.542Z,19.73
2018-05-25T06:31:19.793Z,19.80
2018-05-25T06:33:48.932Z,19.90
2018-05-25T06:36:18.475Z,19.98
2018-05-25T06:38:46.882Z,20.02
2018-05-25T06:41:16.152Z,20.00
2018-05-25T06:43:44.972Z,20.05
2018-05-25T06:46:13.315Z,20.09
2018-05-25T06:48:43.343Z,20.05
2018-05-25T06:51:14.439Z,20.16
2018-05-25T06:53:43.542Z,20.22
2018-05-25T06:56:11.998Z,20.26
2018-05-25T06:58:41.350Z,20.36
2018-05-25T07:01:10.429Z,20.37
2018-05-25T07:03:39.594Z,20.48
2018-05-25T07:06:08.696Z,20.57
2018-05-25T07:08:38.080Z,20.65
2018-05-25T07:11:08.856Z,20.70
2018-05-25T07:13:38.432Z,20.77
2018-05-25T07:16:13.150Z,20.83
2018-05-25T07:18:41.706Z,20.89
2018-05-25T07:21:10.156Z,20.97
2018-05-25T07:23:40.431Z,21.03
2018-05-25T07:26:09.673Z,21.07
2018-05-25T07:28:39.370Z,21.14
2018-05-25T07:31:08.066Z,21.20
2018-05-25T07:33:38.969Z,21.23
2018-05-25T07:36:07.617Z,21.31
2018-05-25T07:38:36.224Z,21.37
2018-05-25T07:41:09.502Z,21.49
2018-05-25T07:43:38.801Z,21.54
2018-05-25T07:46:08.572Z,21.63
2018-05-25T07:48:42.830Z,21.71
2018-05-25T07:51:11.614Z,21.77
2018-05-25T07:53:40.792Z,21.83
2018-05-25T07:56:13.160Z,21.90
2018-05-25T07:58:42.619Z,21.92
2018-05-25T08:01:11.339Z,21.95
2018-05-25T08:03:39.880Z,21.98
2018-05-25T08:06:09.984Z,22.03
2018-05-25T08:08:39.612Z,22.07
2018-05-25T08:11:08.608Z,22.11
2018-05-25T08:13:37.103Z,22.15
2018-05-25T08:16:09.230Z,22.22
2018-05-25T08:18:39.685Z,22.29
2018-05-25T08:21:09.040Z,22.35
2018-05-25T08:23:38.134Z,22.43
2018-05-25T08:26:08.302Z,22.50
2018-05-25T08:28:39.584Z,22.58
2018-05-25T08:31:09.585Z,22.63
2018-05-25T08:33:38.527Z,22.70
2018-05-25T08:36:07.439Z,22.72
2018-05-25T08:38:38.160Z,22.78
2018-05-25T08:41:06.655Z,22.84
2018-05-25T08:43:36.047Z,22.91
2018-05-25T08:46:05.266Z,22.97
2018-05-25T08:48:35.347Z,23.03
2018-05-25T08:51:03.782Z,23.06
2018-05-25T08:53:32.205Z,23.12
2018-05-25T08:56:00.857Z,23.18
2018-05-25T08:58:29.205Z,23.21
2018-05-25T09:00:58.273Z,23.22
2018-05-25T09:03:26.815Z,23.30
2018-05-25T09:05:55.971Z,23.35
2018-05-25T09:08:25.360Z,23.42
2018-05-25T09:10:55.502Z,23.49
2018-05-25T09:13:24.733Z,23.55
2018-05-25T09:15:53.077Z,23.64
2018-05-25T09:18:24.377Z,23.71
2018-05-25T09:20:55.311Z,23.79
2018-05-25T09:23:26.318Z,23.87
2018-05-25T09:25:56.457Z,23.89
2018-05-25T09:28:24.972Z,23.97
2018-05-25T09:30:53.382Z,24.04
2018-05-25T09:33:22.613Z,24.07
2018-05-25T09:35:51.089Z,24.21
2018-05-25T09:38:23.084Z,24.31
2018-05-25T09:40:52.672Z,24.41
2018-05-25T09:43:21.950Z,24.50
2018-05-25T09:45:52.350Z,24.60
2018-05-25T09:48:22.516Z,24.69
2018-05-25T09:50:52.040Z,24.74
2018-05-25T09:53:21.816Z,24.76
2018-05-25T09:55:51.873Z,24.87
2018-05-25T09:58:21.425Z,24.91
2018-05-25T10:00:50.690Z,24.94
2018-05-25T10:03:22.421Z,24.91
2018-05-25T10:05:52.697Z,24.98
2018-05-25T10:08:21.174Z,25.03
2018-05-25T10:10:50.614Z,25.11
2018-05-25T10:13:19.817Z,25.19
2018-05-25T10:15:50.009Z,25.27
2018-05-25T10:18:19.297Z,25.36
2018-05-25T10:20:47.802Z,25.42
2018-05-25T10:23:16.552Z,25.55
2018-05-25T10:25:45.063Z,25.62
2018-05-25T10:28:15.599Z,25.66
2018-05-25T10:30:45.009Z,25.54
2018-05-25T10:33:13.671Z,25.51
2018-05-25T10:35:43.996Z,25.57
2018-05-25T10:38:12.378Z,25.77
2018-05-25T10:40:41.556Z,25.94
2018-05-25T10:43:11.585Z,25.82
2018-05-25T10:45:41.874Z,25.74
2018-05-25T10:48:13.122Z,25.56
2018-05-25T10:50:41.678Z,25.53
2018-05-25T10:53:12.375Z,25.64
2018-05-25T10:55:42.330Z,25.81
2018-05-25T10:58:10.679Z,25.95
2018-05-25T11:00:39.225Z,26.07
2018-05-25T11:03:07.864Z,26.09
2018-05-25T11:05:36.323Z,26.26
2018-05-25T11:08:04.669Z,26.32
2018-05-25T11:10:33.993Z,26.39
2018-05-25T11:13:02.366Z,26.50
2018-05-25T11:15:31.521Z,26.65
2018-05-25T11:18:01.178Z,26.76
2018-05-25T11:20:31.360Z,26.72
2018-05-25T11:22:59.992Z,26.84
2018-05-25T11:25:28.604Z,26.84
2018-05-25T11:27:57.768Z,26.88
2018-05-25T11:30:28.249Z,26.78
2018-05-25T11:32:57.702Z,26.88
2018-05-25T11:35:27.906Z,26.91
2018-05-25T11:37:57.165Z,26.70
2018-05-25T11:40:25.651Z,26.71
2018-05-25T11:42:55.885Z,26.79
2018-05-25T11:45:24.240Z,26.77
2018-05-25T11:47:53.667Z,26.97
2018-05-25T11:50:22.262Z,27.20
2018-05-25T11:52:51.717Z,27.28
2018-05-25T11:55:20.336Z,27.43
2018-05-25T11:57:49.972Z,27.62
2018-05-25T12:00:18.349Z,27.68
2018-05-25T12:02:47.935Z,27.46
2018-05-25T12:05:16.366Z,27.33
2018-05-25T12:07:44.777Z,27.06
2018-05-25T12:10:13.812Z,27.18
2018-05-25T12:12:43.008Z,27.38
2018-05-25T12:15:12.092Z,27.48
2018-05-25T12:17:40.438Z,27.34
2018-05-25T12:20:09.733Z,27.15
2018-05-25T12:22:38.945Z,27.25
2018-05-25T12:25:08.334Z,27.21
2018-05-25T12:27:36.760Z,27.03
2018-05-25T12:30:05.925Z,27.03
2018-05-25T12:32:34.297Z,27.06
2018-05-25T12:35:05.628Z,27.05
2018-05-25T12:37:34.054Z,26.97
2018-05-25T12:40:04.171Z,27.12
2018-05-25T12:42:32.563Z,27.10
2018-05-25T12:45:14.487Z,27.05
2018-05-25T12:47:42.839Z,26.97
2018-05-25T12:50:13.568Z,26.91
2018-05-25T12:52:42.724Z,26.95
2018-05-25T12:55:11.212Z,27.20
2018-05-25T12:57:40.213Z,27.26
2018-05-25T13:00:08.709Z,27.30
2018-05-25T13:02:37.073Z,27.59
2018-05-25T13:05:05.804Z,27.48
2018-05-25T13:07:35.062Z,27.36
2018-05-25T13:10:03.448Z,27.24
2018-05-25T13:12:31.896Z,27.12
2018-05-25T13:15:01.213Z,27.14
2018-05-25T13:17:30.672Z,27.18
2018-05-25T13:19:59.710Z,27.21
2018-05-25T13:22:28.200Z,27.47
2018-05-25T13:24:56.582Z,27.89
2018-05-25T13:27:25.022Z,28.19
2018-05-25T13:29:53.982Z,28.40
2018-05-25T13:32:23.179Z,28.45
2018-05-25T13:34:52.341Z,28.41
2018-05-25T13:37:22.596Z,28.47
2018-05-25T13:39:51.060Z,28.57
2018-05-25T13:42:19.390Z,28.61
2018-05-25T13:44:47.758Z,28.34
2018-05-25T13:47:16.115Z,28.49
2018-05-25T13:49:45.280Z,28.66
2018-05-25T13:52:14.550Z,28.54
2018-05-25T13:54:42.888Z,28.26
2018-05-25T13:57:11.976Z,27.98
2018-05-25T13:59:40.838Z,27.75
2018-05-25T14:02:09.214Z,27.63
2018-05-25T14:04:37.634Z,27.58
2018-05-25T14:07:06.793Z,27.54
2018-05-25T14:09:36.990Z,27.67
2018-05-25T14:12:06.184Z,27.77
2018-05-25T14:14:34.527Z,27.88
2018-05-25T14:17:04.447Z,27.84
2018-05-25T14:19:34.532Z,27.88
2018-05-25T14:22:05.150Z,27.78
2018-05-25T14:24:33.533Z,27.63
2018-05-25T14:27:02.868Z,27.48
2018-05-25T14:29:33.747Z,27.39
2018-05-25T14:32:04.031Z,27.30
2018-05-25T14:34:32.784Z,27.29
2018-05-25T14:37:01.228Z,27.24
2018-05-25T14:39:30.330Z,27.25
2018-05-25T14:42:00.320Z,27.25
2018-05-25T14:44:30.457Z,27.31
2018-05-25T14:46:59.856Z,27.39
2018-05-25T14:49:28.510Z,27.52
2018-05-25T14:51:58.504Z,27.58
2018-05-25T14:54:26.931Z,27.67
2018-05-25T14:56:56.227Z,27.80
2018-05-25T14:59:25.430Z,27.79
2018-05-25T15:01:53.795Z,27.67
2018-05-25T15:04:22.901Z,27.49
2018-05-25T15:06:52.045Z,27.35
2018-05-25T15:09:21.170Z,27.41
2018-05-25T15:11:50.289Z,27.44
2018-05-25T15:14:18.751Z,27.61
2018-05-25T15:16:47.236Z,28.07
2018-05-25T15:19:17.308Z,28.56
2018-05-25T15:21:45.843Z,29.07
2018-05-25T15:24:15.999Z,29.39
2018-05-25T15:26:44.361Z,29.72
2018-05-25T15:29:12.740Z,29.93
2018-05-25T15:31:43.259Z,30.17
2018-05-25T15:34:11.608Z,30.70
2018-05-25T15:36:40.659Z,30.77
2018-05-25T15:39:09.075Z,30.63
2018-05-25T15:41:37.429Z,30.71
2018-05-25T15:44:06.036Z,30.90
2018-05-25T15:46:34.414Z,31.06
2018-05-25T15:49:02.792Z,31.21
2018-05-25T15:51:31.182Z,31.32
2018-05-25T15:54:00.479Z,31.32
2018-05-25T15:56:29.317Z,31.39
2018-05-25T15:58:59.861Z,31.59
2018-05-25T16:01:29.677Z,31.10
2018-05-25T16:04:00.514Z,30.53
2018-05-25T16:06:30.002Z,30.28
2018-05-25T16:08:58.394Z,29.82
2018-05-25T16:11:27.530Z,29.45
2018-05-25T16:13:55.928Z,29.54
2018-05-25T16:16:25.372Z,29.89
2018-05-25T16:18:53.783Z,30.39
2018-05-25T16:21:22.893Z,30.66
2018-05-25T16:23:52.104Z,30.83
2018-05-25T16:26:22.262Z,31.07
2018-05-25T16:28:50.678Z,31.10
2018-05-25T16:31:19.040Z,31.14
2018-05-25T16:33:48.236Z,30.89
2018-05-25T16:36:16.676Z,30.32
2018-05-25T16:38:45.363Z,29.89
2018-05-25T16:41:15.159Z,29.49
2018-05-25T16:43:44.310Z,29.08
2018-05-25T16:46:12.683Z,28.78
2018-05-25T16:48:42.085Z,28.52
2018-05-25T16:51:11.300Z,28.37
2018-05-25T16:53:39.968Z,28.18
2018-05-25T16:56:08.317Z,28.08
2018-05-25T16:58:36.722Z,28.07
2018-05-25T17:01:05.076Z,27.91
2018-05-25T17:03:34.832Z,28.06
2018-05-25T17:06:04.419Z,27.97
2018-05-25T17:08:32.892Z,28.04
2018-05-25T17:11:01.326Z,28.06
2018-05-25T17:13:31.282Z,28.11
2018-05-25T17:15:59.779Z,28.09
2018-05-25T17:18:28.150Z,27.99
2018-05-25T17:20:56.516Z,27.98
2018-05-25T17:23:24.867Z,28.04
2018-05-25T17:25:54.159Z,28.00
2018-05-25T17:28:22.550Z,27.96
2018-05-25T17:30:51.684Z,27.82
2018-05-25T17:33:22.281Z,27.69
2018-05-25T17:35:50.762Z,27.60
2018-05-25T17:38:19.903Z,27.48
2018-05-25T17:40:48.280Z,27.40
2018-05-25T17:43:16.652Z,27.24
2018-05-25T17:45:45.056Z,27.11
2018-05-25T17:48:13.557Z,27.02
2018-05-25T17:50:41.994Z,26.82
2018-05-25T17:53:10.326Z,26.79
2018-05-25T17:55:40.043Z,26.69
2018-05-25T17:58:09.177Z,26.59
2018-05-25T18:00:37.733Z,26.50
2018-05-25T18:03:06.381Z,26.48
2018-05-25T18:05:34.862Z,26.42
2018-05-25T18:08:03.235Z,26.36
2018-05-25T18:10:31.588Z,26.27
2018-05-25T18:12:59.976Z,26.18
2018-05-25T18:15:29.325Z,26.13
2018-05-25T18:17:58.524Z,26.12
2018-05-25T18:20:28.320Z,26.07
2018-05-25T18:22:58.291Z,26.03
2018-05-25T18:25:26.799Z,25.95
2018-05-25T18:27:57.637Z,25.92
2018-05-25T18:30:26.016Z,25.87
2018-05-25T18:32:54.470Z,25.81
2018-05-25T18:35:24.542Z,25.75
2018-05-25T18:37:52.949Z,25.68
2018-05-25T18:40:21.818Z,25.64
2018-05-25T18:42:50.961Z,25.55
2018-05-25T18:45:20.372Z,25.46
2018-05-25T18:47:49.690Z,25.39
2018-05-25T18:50:18.142Z,25.29
2018-05-25T18:52:47.480Z,25.23
2018-05-25T18:55:16.713Z,25.17
2018-05-25T18:57:45.213Z,25.08
2018-05-25T19:00:13.695Z,24.97
2018-05-25T19:02:43.027Z,24.87
2018-05-25T19:05:12.887Z,24.82
2018-05-25T19:07:41.252Z,24.73
2018-05-25T19:10:10.523Z,24.68
2018-05-25T19:12:39.484Z,24.58
2018-05-25T19:15:07.947Z,24.48
2018-05-25T19:17:37.712Z,24.42
2018-05-25T19:20:06.151Z,24.35
2018-05-25T19:22:36.577Z,24.25
2018-05-25T19:25:06.680Z,24.18
2018-05-25T19:27:36.153Z,24.13
2018-05-25T19:30:06.282Z,24.07
2018-05-25T19:32:36.413Z,24.01
2018-05-25T19:35:05.598Z,23.94
2018-05-25T19:37:35.059Z,23.91
2018-05-25T19:40:04.150Z,23.89
2018-05-25T19:42:33.943Z,23.88
2018-05-25T19:45:04.162Z,23.90
2018-05-25T19:47:32.541Z,23.89
2018-05-25T19:50:01.018Z,23.89
2018-05-25T19:52:29.649Z,23.90
2018-05-25T19:54:58.913Z,23.93
2018-05-25T19:57:27.324Z,23.94
2018-05-25T19:59:55.696Z,23.96
2018-05-25T20:02:24.209Z,23.97
2018-05-25T20:04:53.362Z,23.95
2018-05-25T20:07:21.749Z,23.93
2018-05-25T20:09:50.505Z,23.90
2018-05-25T20:12:18.930Z,23.89
2018-05-25T20:14:47.313Z,23.85
2018-05-25T20:17:15.681Z,23.82
2018-05-25T20:19:44.160Z,23.75
2018-05-25T20:22:12.510Z,23.72
2018-05-25T20:24:40.864Z,23.69
2018-05-25T20:27:09.976Z,23.66
2018-05-25T20:29:38.322Z,23.62
2018-05-25T20:32:07.514Z,23.58
2018-05-25T20:34:36.692Z,23.55
2018-05-25T20:37:05.038Z,23.51
2018-05-25T20:39:33.393Z,23.43
2018-05-25T20:42:02.533Z,23.43
2018-05-25T20:44:30.942Z,23.39
2018-05-25T20:46:59.282Z,23.31
2018-05-25T20:49:27.759Z,23.34
2018-05-25T20:51:56.198Z,23.33
2018-05-25T20:54:24.645Z,23.28
2018-05-25T20:56:53.040Z,23.26
2018-05-25T20:59:21.403Z,23.18
2018-05-25T21:01:51.472Z,23.17
2018-05-25T21:04:20.812Z,23.14
2018-05-25T21:06:49.591Z,23.01
2018-05-25T21:09:18.000Z,22.97
2018-05-25T21:11:46.392Z,22.93
2018-05-25T21:14:16.374Z,22.91
2018-05-25T21:16:45.015Z,22.82
2018-05-25T21:19:14.463Z,22.75
2018-05-25T21:21:43.641Z,22.75
2018-05-25T21:24:12.032Z,22.68
2018-05-25T21:26:40.708Z,22.68
2018-05-25T21:29:09.063Z,22.69
2018-05-25T21:31:37.432Z,22.60
2018-05-25T21:34:06.626Z,22.61
2018-05-25T21:36:35.770Z,22.57
2018-05-25T21:39:05.925Z,22.56
2018-05-25T21:41:34.328Z,22.47
2018-05-25T21:44:03.917Z,22.40
2018-05-25T21:46:33.082Z,22.31
2018-05-25T21:49:01.467Z,22.30
2018-05-25T21:51:29.877Z,22.23
2018-05-25T21:53:59.082Z,22.21
2018-05-25T21:56:28.594Z,22.17
2018-05-25T21:58:57.663Z,22.13
2018-05-25T22:01:27.457Z,22.15
2018-05-25T22:03:55.860Z,22.09
2018-05-25T22:06:24.957Z,22.08
2018-05-25T22:08:54.125Z,22.09
2018-05-25T22:11:23.294Z,22.06
2018-05-25T22:13:53.440Z,22.06
2018-05-25T22:16:21.885Z,22.07
2018-05-25T22:18:50.444Z,22.09
2018-05-25T22:21:19.126Z,22.01
2018-05-25T22:23:48.357Z,22.01
2018-05-25T22:26:20.917Z,21.93
2018-05-25T22:28:49.532Z,21.95
2018-05-25T22:31:18.797Z,21.87
2018-05-25T22:33:48.117Z,21.81
2018-05-25T22:36:18.377Z,21.74
2018-05-25T22:38:47.379Z,21.67
2018-05-25T22:41:15.752Z,21.66
2018-05-25T22:44:01.834Z,21.64
2018-05-25T22:46:48.270Z,21.61
2018-05-25T22:49:35.199Z,21.56
2018-05-25T22:52:22.359Z,21.46
2018-05-25T22:57:54.939Z,21.26
2018-05-25T23:00:23.356Z,21.15
2018-05-25T23:02:52.615Z,21.17
2018-05-25T23:05:20.972Z,21.12
2018-05-25T23:07:50.112Z,21.09
2018-05-25T23:10:19.232Z,21.02
2018-05-25T23:12:48.185Z,21.03
2018-05-25T23:15:17.685Z,20.95
2018-05-25T23:17:46.131Z,20.86
2018-05-25T23:20:15.292Z,20.84
2018-05-25T23:22:44.549Z,20.84
2018-05-25T23:25:13.010Z,20.77
2018-05-25T23:27:42.693Z,20.68
2018-05-25T23:30:12.139Z,20.59
2018-05-25T23:32:41.652Z,20.55
2018-05-25T23:35:12.552Z,20.46
2018-05-25T23:37:41.739Z,20.43
2018-05-25T23:40:10.103Z,20.38
2018-05-25T23:42:38.521Z,20.36
2018-05-25T23:45:07.623Z,20.33
2018-05-25T23:47:40.254Z,20.31
2018-05-25T23:50:09.642Z,20.24
2018-05-25T23:52:38.037Z,20.22
2018-05-25T23:55:07.190Z,20.23
2018-05-25T23:57:37.041Z,20.19
